Time;durP1;ratioP1;P1;durP2;ratioP2;P2;SDS_P1;SDS_P2;PMS_P1;PMS_P2;Temp;Humidity;BMP_temperature;BMP_pressure;BME280_temperature;BME280_humidity;BME280_pressure;Samples;Min_cycle;Max_cycle;Signal;HPM_P1;HPM_P2
2021/12/10 00:00:21;;;;;;;19.33;15.30;;;11.20;66.20;;;;;;4807551;29;20073;-73
2021/12/10 00:02:48;;;;;;;22.67;16.08;;;11.20;66.10;;;;;;4791666;29;20047;-75
2021/12/10 00:05:27;;;;;;;22.77;16.15;;;11.20;66.10;;;;;;4791946;29;20122;-75
2021/12/10 00:07:55;;;;;;;24.85;16.13;;;11.20;66.60;;;;;;4791934;29;20380;-75
2021/12/10 00:10:25;;;;;;;22.58;15.75;;;11.10;66.10;;;;;;4807451;29;20050;-75
2021/12/10 00:12:52;;;;;;;21.17;15.52;;;11.10;66.30;;;;;;4807469;29;20054;-77
2021/12/10 00:15:26;;;;;;;25.30;15.90;;;11.10;66.30;;;;;;4807616;29;20055;-74
2021/12/10 00:17:55;;;;;;;21.40;15.52;;;11.20;66.20;;;;;;4808115;29;20344;-75
2021/12/10 00:20:24;;;;;;;23.55;14.23;;;11.20;66.30;;;;;;4791625;29;20095;-74
2021/12/10 00:22:58;;;;;;;21.50;14.70;;;11.20;66.10;;;;;;4791513;29;20476;-75
2021/12/10 00:25:37;;;;;;;20.00;14.82;;;11.20;66.00;;;;;;4776308;29;20089;-75
2021/12/10 00:28:19;;;;;;;21.40;14.95;;;11.30;66.00;;;;;;4791958;29;20376;-75
2021/12/10 00:30:59;;;;;;;22.17;15.00;;;11.20;65.90;;;;;;4807558;29;20046;-74
2021/12/10 00:33:28;;;;;;;24.27;14.55;;;11.10;65.90;;;;;;4810365;29;20110;-74
2021/12/10 00:35:55;;;;;;;22.52;14.82;;;11.10;66.00;;;;;;4794658;29;20156;-74
2021/12/10 00:38:23;;;;;;;21.88;14.20;;;11.10;66.00;;;;;;4794648;29;20067;-74
2021/12/10 00:40:50;;;;;;;21.55;13.68;;;11.10;66.20;;;;;;4779985;29;20162;-75
2021/12/10 00:43:16;;;;;;;19.33;14.27;;;11.10;66.30;;;;;;4810721;29;20416;-75
2021/12/10 00:45:42;;;;;;;21.60;13.98;;;11.10;66.30;;;;;;4810623;29;20086;-73
2021/12/10 00:48:08;;;;;;;21.77;13.95;;;11.10;66.30;;;;;;4795326;29;20066;-75
2021/12/10 00:50:46;;;;;;;22.60;13.90;;;11.10;66.10;;;;;;4794408;29;20456;-75
2021/12/10 00:53:13;;;;;;;24.10;14.30;;;11.10;66.00;;;;;;4795318;29;20139;-75
2021/12/10 00:55:39;;;;;;;19.25;14.20;;;11.10;66.10;;;;;;4809739;29;20051;-73
2021/12/10 00:58:06;;;;;;;20.00;12.95;;;11.10;66.10;;;;;;4809065;29;20066;-75
2021/12/10 01:00:38;;;;;;;17.35;12.35;;;11.10;66.10;;;;;;4809328;29;20050;-74
2021/12/10 01:03:07;;;;;;;20.23;12.48;;;11.10;65.80;;;;;;4810033;29;20134;-73
2021/12/10 01:05:35;;;;;;;20.77;12.50;;;11.10;66.00;;;;;;4810248;29;20127;-77
2021/12/10 01:08:01;;;;;;;19.92;13.15;;;11.10;65.90;;;;;;4810531;29;20371;-74
2021/12/10 01:10:31;;;;;;;19.20;12.55;;;11.00;65.90;;;;;;4794210;29;20463;-75
2021/12/10 01:13:00;;;;;;;21.15;12.63;;;11.10;66.20;;;;;;4810261;29;20054;-75
2021/12/10 01:27:02;;;;;;;18.02;10.73;;;11.00;66.10;;;;;;4792061;30;20055;-76
2021/12/10 01:29:37;;;;;;;18.85;10.90;;;11.00;66.30;;;;;;4790953;29;20143;-74
2021/12/10 01:32:08;;;;;;;15.10;10.85;;;10.90;66.30;;;;;;4791272;30;20358;-75
2021/12/10 01:34:34;;;;;;;18.23;10.45;;;10.90;66.30;;;;;;4791656;30;20059;-74
2021/12/10 01:37:02;;;;;;;16.15;11.02;;;10.90;66.30;;;;;;4792294;29;20130;-74
2021/12/10 01:39:33;;;;;;;17.52;10.80;;;10.90;66.50;;;;;;4791775;29;20047;-75
2021/12/10 01:42:14;;;;;;;14.90;10.15;;;11.00;66.30;;;;;;4790404;29;20055;-74
2021/12/10 01:44:44;;;;;;;17.65;10.13;;;10.90;66.30;;;;;;4790536;29;20356;-75
2021/12/10 01:47:14;;;;;;;18.60;11.10;;;11.00;66.30;;;;;;4790985;30;20059;-74
2021/12/10 01:49:40;;;;;;;17.25;11.25;;;11.00;66.20;;;;;;4791587;29;20087;-75
2021/12/10 01:52:06;;;;;;;14.30;10.27;;;11.10;66.10;;;;;;4791550;30;20055;-76
2021/12/10 01:54:39;;;;;;;19.23;11.20;;;11.00;66.30;;;;;;4792067;30;20066;-74
2021/12/10 01:57:07;;;;;;;17.02;10.57;;;11.10;66.30;;;;;;4791438;30;20082;-76
2021/12/10 01:59:36;;;;;;;17.38;10.02;;;11.00;66.50;;;;;;4790401;30;20138;-74
2021/12/10 02:02:07;;;;;;;16.30;10.65;;;11.00;66.50;;;;;;4790339;30;20083;-75
2021/12/10 02:04:35;;;;;;;18.27;11.07;;;11.00;66.50;;;;;;4790329;30;20112;-74
2021/12/10 02:07:03;;;;;;;13.70;10.30;;;11.00;66.60;;;;;;4791338;29;20424;-75
2021/12/10 02:09:30;;;;;;;14.60;10.05;;;11.00;66.40;;;;;;4790821;30;20063;-74
2021/12/10 02:11:56;;;;;;;18.52;10.48;;;11.00;66.40;;;;;;4791205;29;20047;-75
2021/12/10 02:14:22;;;;;;;14.00;9.55;;;11.00;66.70;;;;;;4790983;30;20461;-75
2021/12/10 02:16:49;;;;;;;13.95;10.23;;;11.00;66.50;;;;;;4790179;30;20155;-75
2021/12/10 02:19:17;;;;;;;15.38;10.05;;;10.90;66.60;;;;;;4790191;30;20055;-74
2021/12/10 02:21:43;;;;;;;13.77;10.13;;;10.90;66.40;;;;;;4791161;29;20055;-77
2021/12/10 02:24:10;;;;;;;15.90;9.70;;;10.90;66.60;;;;;;4794996;29;20455;-75
2021/12/10 02:26:48;;;;;;;17.17;9.20;;;10.90;66.70;;;;;;4807788;29;20054;-75
2021/12/10 02:29:16;;;;;;;16.05;9.25;;;11.00;66.40;;;;;;4807791;29;20054;-75
2021/12/10 02:31:41;;;;;;;12.55;8.55;;;11.00;66.40;;;;;;4808299;29;20058;-74
2021/12/10 02:34:08;;;;;;;13.43;9.07;;;10.90;66.40;;;;;;4793553;29;20526;-74
2021/12/10 02:36:39;;;;;;;13.35;8.85;;;10.90;66.30;;;;;;4807856;29;20102;-76
2021/12/10 02:39:05;;;;;;;12.82;8.95;;;10.90;66.40;;;;;;4807818;29;20436;-73
2021/12/10 02:41:32;;;;;;;12.27;8.40;;;10.80;66.30;;;;;;4808108;29;20090;-74
2021/12/10 02:43:59;;;;;;;12.15;7.80;;;10.80;66.50;;;;;;4808419;29;20474;-73
2021/12/10 02:46:25;;;;;;;15.80;7.82;;;10.80;66.60;;;;;;4792766;29;20130;-74
2021/12/10 02:48:51;;;;;;;13.85;8.30;;;10.80;66.60;;;;;;4808091;29;20055;-74
2021/12/10 02:51:17;;;;;;;15.70;8.25;;;10.90;66.70;;;;;;4807399;29;20050;-74
2021/12/10 02:53:45;;;;;;;14.82;8.10;;;10.90;66.50;;;;;;4792292;29;20059;-75
2021/12/10 02:56:14;;;;;;;12.27;7.13;;;10.80;66.10;;;;;;4792269;29;20067;-73
2021/12/10 02:58:41;;;;;;;9.48;7.03;;;10.80;66.40;;;;;;4808422;29;20067;-73
2021/12/10 03:01:12;;;;;;;11.20;6.63;;;10.80;66.50;;;;;;4808413;29;20051;-74
2021/12/10 03:03:40;;;;;;;14.70;7.30;;;10.80;66.30;;;;;;4808382;29;20061;-75
2021/12/10 03:06:10;;;;;;;12.73;6.97;;;10.80;66.40;;;;;;4808175;29;20130;-74
2021/12/10 03:08:38;;;;;;;9.45;6.70;;;10.80;66.40;;;;;;4808125;29;20051;-74
2021/12/10 03:11:05;;;;;;;11.82;7.03;;;10.80;66.40;;;;;;4792404;29;20051;-73
2021/12/10 03:13:31;;;;;;;10.70;6.88;;;10.80;66.30;;;;;;4808239;29;20512;-74
2021/12/10 03:15:57;;;;;;;13.23;7.07;;;10.90;66.00;;;;;;4808312;29;20047;-74
2021/12/10 03:18:22;;;;;;;9.10;6.30;;;10.80;66.40;;;;;;4807367;29;20430;-74
2021/12/10 03:20:48;;;;;;;11.35;6.20;;;10.80;65.80;;;;;;4807297;29;20101;-75
2021/12/10 03:23:15;;;;;;;11.23;6.15;;;10.80;65.80;;;;;;4808028;29;20054;-76
2021/12/10 03:25:41;;;;;;;11.73;5.65;;;10.80;65.90;;;;;;4807661;29;20376;-77
2021/12/10 03:28:08;;;;;;;8.70;6.03;;;10.80;65.80;;;;;;4792348;29;20171;-75
2021/12/10 03:30:40;;;;;;;10.55;6.43;;;10.80;65.70;;;;;;4806978;29;20115;-74
2021/12/10 03:33:06;;;;;;;10.32;5.90;;;10.80;65.70;;;;;;4807520;29;20066;-73
2021/12/10 03:35:40;;;;;;;11.88;5.55;;;10.80;65.80;;;;;;4807074;29;20454;-75
2021/12/10 03:38:06;;;;;;;14.65;6.45;;;10.80;65.50;;;;;;4807842;29;20062;-73
2021/12/10 03:40:33;;;;;;;10.98;6.07;;;10.80;65.30;;;;;;4808059;29;20142;-74
2021/12/10 03:42:59;;;;;;;10.13;5.50;;;10.90;65.40;;;;;;4792103;29;20054;-74
2021/12/10 03:45:29;;;;;;;13.65;6.43;;;10.80;65.20;;;;;;4808603;29;20111;-73
2021/12/10 03:47:55;;;;;;;10.23;5.88;;;10.80;65.30;;;;;;4807828;29;20055;-74
2021/12/10 03:50:30;;;;;;;10.93;5.80;;;10.80;65.40;;;;;;4808012;29;20130;-74
2021/12/10 03:52:56;;;;;;;12.85;6.45;;;10.80;65.10;;;;;;4807861;29;20051;-74
2021/12/10 03:55:22;;;;;;;11.18;5.80;;;10.70;65.20;;;;;;4807092;29;20090;-75
2021/12/10 03:57:50;;;;;;;11.88;7.05;;;10.80;65.20;;;;;;4792054;29;20130;-75
2021/12/10 04:00:18;;;;;;;11.30;5.85;;;10.70;65.00;;;;;;4807464;29;20195;-73
2021/12/10 04:02:44;;;;;;;12.57;6.13;;;10.70;65.20;;;;;;4808029;29;20492;-76
2021/12/10 04:05:09;;;;;;;9.80;6.05;;;10.70;65.10;;;;;;4807546;29;20094;-73
2021/12/10 04:07:35;;;;;;;9.90;5.90;;;10.70;65.20;;;;;;4808998;29;20054;-75
2021/12/10 04:10:03;;;;;;;11.98;6.75;;;10.70;65.20;;;;;;4810543;29;20465;-74
2021/12/10 04:12:29;;;;;;;14.25;6.38;;;10.70;65.20;;;;;;4811375;29;20055;-74
2021/12/10 04:14:55;;;;;;;9.18;5.93;;;10.70;65.30;;;;;;4810899;29;20589;-74
2021/12/10 04:17:22;;;;;;;10.68;6.35;;;10.70;64.90;;;;;;4795530;29;20133;-75
2021/12/10 04:19:50;;;;;;;12.73;6.35;;;10.60;64.90;;;;;;4810871;29;20055;-74
2021/12/10 04:22:16;;;;;;;9.02;5.82;;;10.60;65.00;;;;;;4811687;29;20135;-73
2021/12/10 04:24:42;;;;;;;7.25;5.25;;;10.60;64.80;;;;;;4810572;29;20059;-74
2021/12/10 04:27:11;;;;;;;8.40;6.03;;;10.60;64.90;;;;;;4795176;29;20139;-74
2021/12/10 04:29:37;;;;;;;12.02;6.80;;;10.60;65.00;;;;;;4810820;29;20047;-74
2021/12/10 04:32:05;;;;;;;10.80;6.95;;;10.70;65.20;;;;;;4811130;29;20061;-74
2021/12/10 04:34:31;;;;;;;9.07;6.35;;;10.60;64.50;;;;;;4810922;29;20479;-73
2021/12/10 04:36:59;;;;;;;9.23;5.57;;;10.60;64.80;;;;;;4810916;29;20138;-77
2021/12/10 04:39:26;;;;;;;8.57;5.75;;;10.60;64.30;;;;;;4810843;29;20344;-74
2021/12/10 04:41:52;;;;;;;10.20;5.65;;;10.60;64.70;;;;;;4809899;29;20138;-74
2021/12/10 04:44:18;;;;;;;8.43;5.68;;;10.60;64.70;;;;;;4810997;29;20061;-74
2021/12/10 04:46:44;;;;;;;11.20;5.72;;;10.60;64.40;;;;;;4810276;29;20348;-74
2021/12/10 04:49:13;;;;;;;11.75;7.60;;;10.80;65.00;;;;;;4793971;29;20050;-73
2021/12/10 04:51:48;;;;;;;12.43;7.82;;;11.10;61.70;;;;;;4794764;29;20063;-77
2021/12/10 04:54:15;;;;;;;18.40;8.30;;;11.10;59.30;;;;;;4810266;29;20062;-75
2021/12/10 04:56:42;;;;;;;14.68;7.90;;;11.00;58.80;;;;;;4810370;29;20083;-75
2021/12/10 04:59:10;;;;;;;12.35;7.72;;;10.90;58.70;;;;;;4809526;29;20066;-74
2021/12/10 05:01:37;;;;;;;13.48;8.07;;;10.80;58.80;;;;;;4794338;29;20421;-74
2021/12/10 05:04:06;;;;;;;12.00;7.78;;;10.70;58.90;;;;;;4795186;29;20047;-71
2021/12/10 05:06:32;;;;;;;14.20;7.75;;;10.70;58.80;;;;;;4810019;29;20081;-73
2021/12/10 05:08:58;;;;;;;12.38;7.15;;;10.60;58.80;;;;;;4810009;29;20451;-72
2021/12/10 05:11:24;;;;;;;13.40;8.10;;;10.50;58.90;;;;;;4810026;29;20159;-74
2021/12/10 05:13:49;;;;;;;11.88;7.63;;;10.40;59.40;;;;;;4794173;29;20474;-75
2021/12/10 05:16:25;;;;;;;14.27;8.07;;;10.40;59.50;;;;;;4809459;29;20083;-74
2021/12/10 05:18:57;;;;;;;12.50;7.45;;;10.30;59.50;;;;;;4810159;29;20047;-73
2021/12/10 05:21:25;;;;;;;11.18;7.70;;;10.20;59.80;;;;;;4808823;29;20054;-74
2021/12/10 05:23:51;;;;;;;13.55;7.78;;;10.20;59.90;;;;;;4794182;29;20055;-73
2021/12/10 05:26:17;;;;;;;9.98;7.43;;;10.10;59.90;;;;;;4809898;29;20360;-71
2021/12/10 05:28:43;;;;;;;11.23;7.40;;;10.10;60.00;;;;;;4794828;29;20066;-71
2021/12/10 05:31:09;;;;;;;11.10;7.10;;;10.10;60.10;;;;;;4810184;29;20107;-71
2021/12/10 05:33:35;;;;;;;11.80;7.82;;;10.00;60.00;;;;;;4794147;29;20063;-72
2021/12/10 05:36:02;;;;;;;13.77;8.00;;;10.00;60.10;;;;;;4809980;29;20058;-72
2021/12/10 05:38:28;;;;;;;16.45;7.68;;;9.90;60.20;;;;;;4809054;29;20086;-74
2021/12/10 05:40:55;;;;;;;15.30;6.97;;;9.80;60.60;;;;;;4777495;29;20058;-73
2021/12/10 05:43:22;;;;;;;13.57;6.93;;;9.90;61.10;;;;;;4790151;29;20051;-74
2021/12/10 05:45:49;;;;;;;12.65;6.22;;;10.10;61.60;;;;;;4793365;29;20058;-76
2021/12/10 05:48:16;;;;;;;8.63;5.43;;;10.30;62.00;;;;;;4793302;29;20062;-75
2021/12/10 05:50:42;;;;;;;19.13;6.07;;;10.60;61.10;;;;;;4808303;29;20054;-72
2021/12/10 05:53:09;;;;;;;9.23;4.50;;;11.00;61.70;;;;;;4809398;29;20058;-74
2021/12/10 05:55:37;;;;;;;8.70;4.72;;;11.40;60.90;;;;;;4809421;29;20067;-74
2021/12/10 05:58:04;;;;;;;9.70;4.07;;;11.90;60.90;;;;;;4809453;29;20391;-74
2021/12/10 06:00:33;;;;;;;8.63;3.90;;;12.40;60.40;;;;;;4808730;29;20065;-71
2021/12/10 06:02:59;;;;;;;13.90;3.80;;;12.70;59.80;;;;;;4809470;29;20055;-70
2021/12/10 06:05:27;;;;;;;9.38;3.25;;;13.10;59.40;;;;;;4808904;29;20096;-71
2021/12/10 06:07:52;;;;;;;9.27;3.17;;;13.40;58.80;;;;;;4808667;29;20434;-72
2021/12/10 06:10:20;;;;;;;9.52;3.20;;;13.70;59.10;;;;;;4791857;29;20138;-72
2021/12/10 06:12:47;;;;;;;5.35;2.83;;;14.00;58.90;;;;;;4809380;29;20050;-74
2021/12/10 06:15:15;;;;;;;19.17;3.28;;;14.20;58.60;;;;;;4809040;29;20039;-77
2021/12/10 06:17:41;;;;;;;9.77;3.05;;;14.30;57.80;;;;;;4792969;29;20055;-77
2021/12/10 06:20:09;;;;;;;13.18;2.80;;;14.50;58.80;;;;;;4808776;29;20094;-80
2021/12/10 06:22:35;;;;;;;16.30;4.00;;;14.60;59.10;;;;;;4808096;29;20166;-80
2021/12/10 06:25:01;;;;;;;12.73;2.60;;;14.70;59.50;;;;;;4792592;29;20080;-73
2021/12/10 06:27:28;;;;;;;9.25;2.55;;;14.90;59.30;;;;;;4807483;29;20055;-75
2021/12/10 06:29:53;;;;;;;10.68;2.85;;;15.00;59.20;;;;;;4792342;29;20054;-74
2021/12/10 06:32:19;;;;;;;8.63;2.53;;;15.10;59.20;;;;;;4808548;29;20061;-75
2021/12/10 06:34:45;;;;;;;10.95;2.20;;;15.30;59.10;;;;;;4808683;29;20101;-75
2021/12/10 06:37:11;;;;;;;11.82;2.50;;;15.30;58.90;;;;;;4808675;29;20528;-76
2021/12/10 06:39:37;;;;;;;11.25;2.40;;;15.40;58.90;;;;;;4808117;29;20051;-75
2021/12/10 06:42:03;;;;;;;15.38;3.10;;;15.40;58.90;;;;;;4808841;29;20051;-75
2021/12/10 06:44:29;;;;;;;11.50;2.55;;;15.50;59.00;;;;;;4808766;29;20089;-74
2021/12/10 06:46:55;;;;;;;9.32;2.45;;;15.60;58.90;;;;;;4808121;29;20495;-76
2021/12/10 06:49:21;;;;;;;13.40;3.30;;;15.70;58.90;;;;;;4808451;29;20078;-77
2021/12/10 06:51:47;;;;;;;9.82;2.25;;;15.80;58.80;;;;;;4792225;29;20055;-74
2021/12/10 06:54:13;;;;;;;9.38;2.10;;;15.90;58.80;;;;;;4808747;29;20078;-73
2021/12/10 06:56:40;;;;;;;15.95;3.17;;;15.90;59.00;;;;;;4790338;29;20388;-72
2021/12/10 06:59:08;;;;;;;9.55;2.47;;;15.90;59.00;;;;;;4807071;29;20039;-73
2021/12/10 07:01:38;;;;;;;7.55;2.47;;;15.90;59.10;;;;;;4807719;29;20105;-74
2021/12/10 07:04:09;;;;;;;10.75;3.03;;;15.90;59.20;;;;;;4808591;29;20134;-77
2021/12/10 07:06:36;;;;;;;11.52;2.70;;;15.90;58.90;;;;;;4792224;29;20164;-74
2021/12/10 07:09:09;;;;;;;20.20;2.72;;;15.90;58.50;;;;;;4808591;29;20046;-73
2021/12/10 07:11:35;;;;;;;10.15;2.78;;;15.90;58.60;;;;;;4808070;29;20074;-79
2021/12/10 07:14:01;;;;;;;19.05;3.75;;;15.90;59.00;;;;;;4808538;29;20050;-73
2021/12/10 07:16:29;;;;;;;12.25;3.63;;;15.80;59.10;;;;;;4807797;29;20470;-73
2021/12/10 07:18:57;;;;;;;20.63;4.15;;;15.70;58.80;;;;;;4792153;29;20066;-74
2021/12/10 07:21:23;;;;;;;9.10;2.78;;;15.60;58.70;;;;;;4803884;29;20055;-73
2021/12/10 07:23:49;;;;;;;11.93;3.13;;;15.60;58.70;;;;;;4790101;29;20398;-75
2021/12/10 07:26:15;;;;;;;11.63;3.30;;;15.50;58.70;;;;;;4788761;30;20108;-74
2021/12/10 07:28:41;;;;;;;10.18;2.83;;;15.40;58.70;;;;;;4790030;30;20052;-75
2021/12/10 07:31:08;;;;;;;13.70;2.88;;;15.30;58.80;;;;;;4800520;29;20065;-74
2021/12/10 07:33:34;;;;;;;7.50;3.58;;;15.20;58.80;;;;;;4805934;29;20058;-72
2021/12/10 07:36:00;;;;;;;8.80;2.70;;;15.20;59.00;;;;;;4813734;29;20107;-74
2021/12/10 07:38:26;;;;;;;8.55;2.83;;;15.00;59.10;;;;;;4806813;29;20413;-73
2021/12/10 07:40:52;;;;;;;8.73;2.97;;;15.00;59.20;;;;;;4805633;29;20111;-73
2021/12/10 07:43:19;;;;;;;7.07;2.75;;;14.90;59.30;;;;;;4784063;29;20435;-73
2021/12/10 07:45:47;;;;;;;12.90;2.97;;;14.80;59.30;;;;;;4811967;29;20139;-72
2021/12/10 07:48:16;;;;;;;13.68;2.75;;;14.80;59.30;;;;;;4811461;29;20051;-73
2021/12/10 07:50:53;;;;;;;10.85;2.70;;;14.70;59.40;;;;;;4810489;29;20059;-73
2021/12/10 07:53:20;;;;;;;9.25;2.88;;;14.70;59.50;;;;;;4811745;29;20425;-74
2021/12/10 07:55:47;;;;;;;5.53;3.00;;;14.70;59.60;;;;;;4811652;29;20055;-74
2021/12/10 07:58:13;;;;;;;5.18;3.75;;;14.70;59.30;;;;;;4811247;29;20428;-74
2021/12/10 08:00:41;;;;;;;6.93;4.03;;;14.70;59.00;;;;;;4811166;29;20130;-73
2021/12/10 08:03:07;;;;;;;8.25;5.10;;;14.70;58.30;;;;;;4811300;29;20068;-74
2021/12/10 08:05:33;;;;;;;9.55;5.18;;;14.60;57.00;;;;;;4810772;29;20046;-73
2021/12/10 08:08:00;;;;;;;7.68;4.32;;;14.60;56.70;;;;;;4811266;29;20384;-73
2021/12/10 08:10:27;;;;;;;10.90;5.40;;;14.60;56.60;;;;;;4811026;29;20123;-72
2021/12/10 08:12:54;;;;;;;6.28;4.70;;;14.60;56.30;;;;;;4809453;29;20135;-73
2021/12/10 08:15:19;;;;;;;9.80;5.10;;;14.60;55.50;;;;;;4794716;29;20483;-74
2021/12/10 08:17:46;;;;;;;8.23;4.60;;;14.60;54.70;;;;;;4811049;29;20096;-74
2021/12/10 08:20:18;;;;;;;8.80;4.15;;;14.60;54.10;;;;;;4795065;29;20131;-74
2021/12/10 08:22:45;;;;;;;6.32;4.32;;;14.70;53.90;;;;;;4810918;29;20348;-73
2021/12/10 08:25:11;;;;;;;6.80;4.05;;;14.80;53.80;;;;;;4810277;29;20079;-76
2021/12/10 08:27:38;;;;;;;5.72;3.38;;;14.80;53.70;;;;;;4795019;29;20066;-76
2021/12/10 08:30:09;;;;;;;8.48;3.70;;;14.90;53.70;;;;;;4810829;29;20130;-75
2021/12/10 08:32:35;;;;;;;7.18;3.40;;;14.90;53.70;;;;;;4811061;29;20050;-74
2021/12/10 08:35:04;;;;;;;6.88;2.85;;;14.90;53.70;;;;;;4810610;29;20055;-75
2021/12/10 08:37:30;;;;;;;5.00;3.08;;;14.90;53.80;;;;;;4810553;29;20245;-76
2021/12/10 08:39:56;;;;;;;4.60;2.47;;;14.90;53.90;;;;;;4810394;29;20519;-75
2021/12/10 08:42:22;;;;;;;5.70;3.72;;;14.90;54.10;;;;;;4794924;29;20065;-76
2021/12/10 08:44:49;;;;;;;6.10;3.50;;;14.30;53.40;;;;;;4810720;29;20054;-74
2021/12/10 08:47:15;;;;;;;4.88;3.30;;;13.70;55.30;;;;;;4795440;29;20141;-74
2021/12/10 08:49:42;;;;;;;5.68;2.80;;;13.40;57.00;;;;;;4810767;29;20130;-73
2021/12/10 08:52:09;;;;;;;6.88;3.13;;;13.60;57.10;;;;;;4809305;29;20130;-75
2021/12/10 08:54:36;;;;;;;7.88;2.63;;;13.80;57.10;;;;;;4809848;29;20063;-76
2021/12/10 08:57:05;;;;;;;6.57;3.38;;;13.90;57.00;;;;;;4810446;29;20059;-75
2021/12/10 08:59:31;;;;;;;6.93;2.53;;;14.00;56.80;;;;;;4810407;29;20042;-73
2021/12/10 09:02:00;;;;;;;4.53;2.90;;;14.00;56.70;;;;;;4809961;29;20165;-74
2021/12/10 09:04:28;;;;;;;4.30;2.45;;;14.10;56.60;;;;;;4810234;29;20054;-75
2021/12/10 09:07:02;;;;;;;4.03;2.45;;;14.10;56.40;;;;;;4810190;29;20363;-75
2021/12/10 09:09:30;;;;;;;4.85;2.63;;;14.10;56.40;;;;;;4810173;29;20051;-75
2021/12/10 09:11:59;;;;;;;5.80;2.90;;;14.10;57.10;;;;;;4809669;29;20054;-74
2021/12/10 09:14:30;;;;;;;3.35;1.88;;;14.10;56.50;;;;;;4810723;29;20094;-74
2021/12/10 09:16:57;;;;;;;3.35;2.00;;;14.10;56.60;;;;;;4810721;29;20077;-75
2021/12/10 09:19:24;;;;;;;6.60;2.17;;;14.10;56.70;;;;;;4794613;29;20074;-75
2021/12/10 09:21:49;;;;;;;5.57;1.98;;;14.10;56.80;;;;;;4809369;29;20054;-74
2021/12/10 09:24:18;;;;;;;5.70;2.20;;;14.10;56.90;;;;;;4810240;29;20158;-75
2021/12/10 09:26:46;;;;;;;3.53;2.08;;;14.10;57.20;;;;;;4810296;29;20098;-76
2021/12/10 09:29:14;;;;;;;4.75;2.30;;;14.10;57.10;;;;;;4809902;29;20086;-79
2021/12/10 09:31:42;;;;;;;4.97;2.65;;;14.10;57.20;;;;;;4809689;29;20058;-76
2021/12/10 09:34:10;;;;;;;4.30;2.78;;;14.10;57.10;;;;;;4809625;29;20069;-74
2021/12/10 09:36:36;;;;;;;8.68;2.40;;;14.10;57.00;;;;;;4809183;29;20051;-73
2021/12/10 09:39:05;;;;;;;9.52;2.60;;;14.10;56.80;;;;;;4793644;29;20074;-74
2021/12/10 09:41:31;;;;;;;7.07;2.50;;;14.10;56.70;;;;;;4781422;29;20055;-74
2021/12/10 09:43:57;;;;;;;4.63;2.50;;;14.10;56.90;;;;;;4809535;29;20039;-77
2021/12/10 09:46:23;;;;;;;5.15;2.28;;;14.10;57.10;;;;;;4809007;29;20051;-73
2021/12/10 09:48:50;;;;;;;4.32;2.50;;;14.10;57.30;;;;;;4809079;29;20061;-74
2021/12/10 09:51:21;;;;;;;6.25;2.33;;;14.00;57.30;;;;;;4808958;29;20062;-73
2021/12/10 09:53:51;;;;;;;5.10;1.73;;;14.00;57.50;;;;;;4809795;29;20090;-74
2021/12/10 09:56:19;;;;;;;4.95;2.08;;;14.00;57.60;;;;;;4809135;29;20051;-73
2021/12/10 09:58:45;;;;;;;5.10;2.03;;;14.00;57.70;;;;;;4809378;29;20364;-73
2021/12/10 10:01:11;;;;;;;3.92;1.70;;;14.00;57.80;;;;;;4809194;29;20137;-74
2021/12/10 10:03:41;;;;;;;4.45;1.60;;;14.00;57.90;;;;;;4793908;29;20058;-73
2021/12/10 10:06:09;;;;;;;4.20;1.65;;;14.00;58.00;;;;;;4808323;29;20055;-73
2021/12/10 10:08:37;;;;;;;3.55;1.52;;;13.90;58.00;;;;;;4809425;29;20119;-75
2021/12/10 10:11:10;;;;;;;3.10;1.40;;;13.90;58.10;;;;;;4809049;29;20066;-74
2021/12/10 10:13:40;;;;;;;8.13;2.08;;;13.90;58.20;;;;;;4809028;29;20055;-73
2021/12/10 10:16:06;;;;;;;6.00;1.52;;;13.90;58.30;;;;;;4793050;29;20440;-73
2021/12/10 10:18:34;;;;;;;3.28;1.35;;;13.90;58.40;;;;;;4808770;29;20050;-77
2021/12/10 10:21:07;;;;;;;3.50;1.35;;;14.00;58.60;;;;;;4809141;29;20095;-78
2021/12/10 10:23:34;;;;;;;3.25;1.20;;;14.00;58.40;;;;;;4808735;29;20463;-78
2021/12/10 10:26:06;;;;;;;9.48;1.65;;;14.10;58.40;;;;;;4808174;29;20461;-77
2021/12/10 10:28:37;;;;;;;11.38;2.75;;;14.00;58.50;;;;;;4807738;29;20058;-78
2021/12/10 10:31:10;;;;;;;6.93;1.90;;;14.10;58.50;;;;;;4808441;29;20050;-77
2021/12/10 10:33:37;;;;;;;7.65;1.58;;;14.10;58.50;;;;;;4808725;29;20046;-78
2021/12/10 10:36:08;;;;;;;6.93;2.25;;;14.10;58.30;;;;;;4808095;29;20055;-77
2021/12/10 10:38:34;;;;;;;4.22;1.30;;;14.10;58.20;;;;;;4809103;29;20058;-77
2021/12/10 10:41:09;;;;;;;10.48;1.25;;;14.10;58.10;;;;;;4808403;29;20059;-78
2021/12/10 10:43:35;;;;;;;6.72;1.23;;;14.10;58.10;;;;;;4808461;29;20391;-77
2021/12/10 10:46:01;;;;;;;20.95;3.38;;;14.10;58.00;;;;;;4795673;29;20059;-76
2021/12/10 10:48:27;;;;;;;10.93;2.30;;;14.10;57.60;;;;;;4804477;29;20349;-79
2021/12/10 10:50:58;;;;;;;11.50;2.35;;;14.10;56.90;;;;;;4805173;29;20134;-76
2021/12/10 10:53:29;;;;;;;7.20;2.17;;;14.10;56.30;;;;;;4805429;29;20208;-77
2021/12/10 10:56:09;;;;;;;8.00;2.67;;;14.10;55.90;;;;;;4789460;29;20063;-78
2021/12/10 10:58:40;;;;;;;11.13;3.33;;;14.10;55.40;;;;;;4807499;29;20050;-76
2021/12/10 11:01:21;;;;;;;7.35;2.20;;;14.10;54.70;;;;;;4806624;29;20051;-76
2021/12/10 11:04:17;;;;;;;6.85;2.20;;;14.00;54.70;;;;;;4807592;29;20123;-77
2021/12/10 11:06:49;;;;;;;7.10;2.45;;;14.10;55.20;;;;;;4806006;29;20432;-78
2021/12/10 11:09:21;;;;;;;6.50;2.10;;;14.00;55.50;;;;;;4792422;29;20058;-80
2021/12/10 11:12:11;;;;;;;6.47;2.08;;;14.00;55.70;;;;;;4792054;29;20463;-76
2021/12/10 11:15:04;;;;;;;6.25;1.88;;;14.00;56.20;;;;;;4807170;29;20055;-83
2021/12/10 11:17:34;;;;;;;9.73;2.10;;;14.00;56.50;;;;;;4792164;29;20104;-80
2021/12/10 11:20:15;;;;;;;5.55;2.15;;;13.90;57.00;;;;;;4777244;29;20539;-78
2021/12/10 11:22:50;;;;;;;7.32;1.92;;;13.90;57.30;;;;;;4807992;29;20050;-76
2021/12/10 11:25:25;;;;;;;9.50;1.67;;;13.90;57.60;;;;;;4808176;29;20063;-76
2021/12/10 11:28:04;;;;;;;11.00;1.90;;;13.90;57.80;;;;;;4807349;29;20055;-77
2021/12/10 11:30:30;;;;;;;7.85;1.95;;;13.90;57.60;;;;;;4783005;29;20050;-79
2021/12/10 11:33:06;;;;;;;8.52;3.40;;;13.90;57.30;;;;;;4807842;29;20065;-77
2021/12/10 11:35:37;;;;;;;11.32;3.80;;;13.90;56.40;;;;;;4807737;29;20464;-78
2021/12/10 11:38:16;;;;;;;8.35;3.90;;;13.90;54.80;;;;;;4799069;29;20064;-75
2021/12/10 11:40:49;;;;;;;8.48;3.25;;;13.80;53.40;;;;;;4807291;29;20410;-78
2021/12/10 11:49:00;;;;;;;7.35;3.60;;;13.60;53.10;;;;;;4792040;29;20467;-78
2021/12/10 11:51:30;;;;;;;6.78;3.30;;;13.50;52.90;;;;;;4791459;29;20050;-76
2021/12/10 11:54:00;;;;;;;7.88;3.40;;;13.50;52.60;;;;;;4791143;29;20111;-75
2021/12/10 11:56:40;;;;;;;8.43;3.05;;;13.50;52.80;;;;;;4806481;29;20061;-76
2021/12/10 11:59:20;;;;;;;5.20;2.67;;;13.50;53.40;;;;;;4807576;29;20122;-76
2021/12/10 12:01:50;;;;;;;7.40;2.67;;;13.50;54.10;;;;;;4806532;29;20552;-72
2021/12/10 12:04:39;;;;;;;5.60;2.10;;;13.40;54.70;;;;;;4807804;29;20050;-71
2021/12/10 12:07:35;;;;;;;5.38;2.33;;;13.40;55.20;;;;;;4791597;29;20098;-75
2021/12/10 12:10:06;;;;;;;7.53;2.45;;;13.50;56.10;;;;;;4808292;29;20051;-74
2021/12/10 12:12:45;;;;;;;6.55;2.35;;;13.40;56.30;;;;;;4807510;29;20061;-74
2021/12/10 12:15:23;;;;;;;5.45;2.17;;;13.50;56.60;;;;;;4790853;29;20058;-75
2021/12/10 12:17:52;;;;;;;10.93;2.55;;;13.50;57.60;;;;;;4807382;29;20058;-76
2021/12/10 12:20:29;;;;;;;9.15;1.95;;;13.50;57.70;;;;;;4791007;29;20062;-76
2021/12/10 12:26:14;;;;;;;6.15;1.23;;;13.80;57.20;;;;;;4768440;30;20543;-75
2021/12/10 12:28:47;;;;;;;8.38;1.88;;;14.20;56.90;;;;;;4789929;29;20074;-79
2021/12/10 12:31:21;;;;;;;7.00;1.77;;;14.50;56.60;;;;;;4795532;29;20054;-81
2021/12/10 12:33:57;;;;;;;8.02;1.55;;;14.80;56.40;;;;;;4810114;29;20463;-76
2021/12/10 12:36:49;;;;;;;6.22;1.35;;;15.00;56.10;;;;;;4794294;29;20090;-76
2021/12/10 12:39:40;;;;;;;11.90;1.52;;;15.10;56.00;;;;;;4805463;29;20145;-79
2021/12/10 12:42:29;;;;;;;7.43;1.10;;;15.20;56.00;;;;;;4810089;29;20047;-78
2021/12/10 12:45:02;;;;;;;8.40;1.20;;;15.30;56.10;;;;;;4810518;29;20114;-75
2021/12/10 12:47:32;;;;;;;5.50;1.63;;;15.30;56.20;;;;;;4794387;29;20123;-76
2021/12/10 12:50:10;;;;;;;8.85;1.75;;;15.20;56.20;;;;;;4794214;29;20298;-77
2021/12/10 12:52:41;;;;;;;9.00;1.85;;;15.20;55.30;;;;;;4810242;29;20451;-77
2021/12/10 12:55:12;;;;;;;8.77;1.55;;;15.20;55.10;;;;;;4794585;29;20122;-77
2021/12/10 12:57:59;;;;;;;6.35;1.40;;;15.10;55.10;;;;;;4810505;29;20388;-78
2021/12/10 13:00:37;;;;;;;7.05;1.65;;;15.10;55.20;;;;;;4771970;30;20063;-76
2021/12/10 13:03:09;;;;;;;8.05;1.52;;;15.00;55.50;;;;;;4772558;30;20059;-77
2021/12/10 13:05:49;;;;;;;7.63;1.73;;;15.00;55.70;;;;;;4757355;30;20095;-75
2021/12/10 13:08:18;;;;;;;7.28;1.30;;;14.90;55.80;;;;;;4772452;30;20146;-78
2021/12/10 13:10:54;;;;;;;3.78;1.33;;;14.90;56.00;;;;;;4772807;30;20102;-76